createdAt,value
2019-05-25T00:00:09.660Z,1009.83
2019-05-25T00:01:09.607Z,1009.81
2019-05-25T00:02:09.584Z,1009.83
2019-05-25T00:03:09.551Z,1009.82
2019-05-25T00:04:09.522Z,1009.84
2019-05-25T00:05:09.526Z,1009.86
2019-05-25T00:06:09.474Z,1009.84
2019-05-25T00:07:09.443Z,1009.83
2019-05-25T00:08:09.473Z,1009.89
2019-05-25T00:09:09.386Z,1009.88
2019-05-25T00:10:10.151Z,1009.94
2019-05-25T00:11:09.338Z,1009.92
2019-05-25T00:12:09.309Z,1009.99
2019-05-25T00:13:09.286Z,1009.99
2019-05-25T00:14:09.251Z,1009.94
2019-05-25T00:15:09.241Z,1010.00
2019-05-25T00:16:09.191Z,1009.93
2019-05-25T00:17:09.225Z,1009.96
2019-05-25T00:18:09.140Z,1009.95
2019-05-25T00:19:09.124Z,1009.96
2019-05-25T00:20:09.106Z,1009.96
2019-05-25T00:21:09.076Z,1009.92
2019-05-25T00:22:09.024Z,1009.98
2019-05-25T00:23:08.997Z,1009.99
2019-05-25T00:24:12.647Z,1009.96
2019-05-25T00:25:08.967Z,1010.02
2019-05-25T00:26:08.910Z,1010.00
2019-05-25T00:27:08.889Z,1010.01
2019-05-25T00:28:08.861Z,1010.06
2019-05-25T00:29:08.830Z,1010.06
2019-05-25T00:30:08.829Z,1010.05
2019-05-25T00:31:08.775Z,1010.03
2019-05-25T00:32:08.750Z,1010.04
2019-05-25T00:33:08.722Z,1010.05
2019-05-25T00:34:08.692Z,1010.06
2019-05-25T00:35:08.687Z,1010.05
2019-05-25T00:36:08.636Z,1010.07
2019-05-25T00:37:08.606Z,1010.02
2019-05-25T00:38:08.585Z,1010.06
2019-05-25T00:39:08.552Z,1010.06
2019-05-25T00:40:08.549Z,1010.07
2019-05-25T00:41:08.494Z,1010.11
2019-05-25T00:42:08.465Z,1010.08
2019-05-25T00:43:08.458Z,1010.05
2019-05-25T00:44:08.413Z,1010.10
2019-05-25T00:45:08.454Z,1010.05
2019-05-25T00:46:08.360Z,1010.04
2019-05-25T00:47:08.326Z,1010.05
2019-05-25T00:48:08.301Z,1010.04
2019-05-25T00:49:08.275Z,1010.08
2019-05-25T00:50:08.270Z,1010.05
2019-05-25T00:51:08.214Z,1010.06
2019-05-25T00:52:08.211Z,1010.07
2019-05-25T00:53:08.245Z,1010.08
2019-05-25T00:54:08.128Z,1010.08
2019-05-25T00:55:08.128Z,1010.07
2019-05-25T00:56:08.080Z,1010.12
2019-05-25T00:57:08.049Z,1010.12
2019-05-25T00:58:08.029Z,1010.12
2019-05-25T00:59:07.993Z,1010.10
2019-05-25T01:00:07.995Z,1010.15
2019-05-25T01:01:07.946Z,1010.17
2019-05-25T01:02:07.914Z,1010.16
2019-05-25T01:03:07.874Z,1010.16
2019-05-25T01:04:07.852Z,1010.22
2019-05-25T01:05:07.819Z,1010.18
2019-05-25T01:06:07.817Z,1010.23
2019-05-25T01:07:07.790Z,1010.21
2019-05-25T01:08:07.742Z,1010.21
2019-05-25T01:09:07.711Z,1010.24
2019-05-25T01:10:07.680Z,1010.24
2019-05-25T01:11:07.680Z,1010.27
2019-05-25T01:12:08.156Z,1010.24
2019-05-25T01:13:07.598Z,1010.25
2019-05-25T01:14:07.567Z,1010.28
2019-05-25T01:15:07.539Z,1010.29
2019-05-25T01:16:07.535Z,1010.32
2019-05-25T01:17:07.491Z,1010.32
2019-05-25T01:18:07.453Z,1010.30
2019-05-25T01:19:07.423Z,1010.34
2019-05-25T01:20:07.396Z,1010.33
2019-05-25T01:21:07.395Z,1010.32
2019-05-25T01:22:08.161Z,1010.33
2019-05-25T01:23:07.311Z,1010.30
2019-05-25T01:24:07.279Z,1010.36
2019-05-25T01:25:07.255Z,1010.32
2019-05-25T01:26:07.252Z,1010.32
2019-05-25T01:27:07.197Z,1010.35
2019-05-25T01:28:07.167Z,1010.32
2019-05-25T01:29:07.137Z,1010.36
2019-05-25T01:30:07.110Z,1010.30
2019-05-25T01:31:07.113Z,1010.33
2019-05-25T01:32:07.108Z,1010.33
2019-05-25T01:33:07.029Z,1010.34
2019-05-25T01:34:07.000Z,1010.30
2019-05-25T01:35:06.971Z,1010.31
2019-05-25T01:36:06.957Z,1010.35
2019-05-25T01:37:06.908Z,1010.28
2019-05-25T01:38:06.880Z,1010.37
2019-05-25T01:39:06.857Z,1010.33
2019-05-25T01:40:06.828Z,1010.30
2019-05-25T01:41:06.845Z,1010.33
2019-05-25T01:42:07.674Z,1010.32
2019-05-25T01:43:06.733Z,1010.30
2019-05-25T01:44:06.706Z,1010.32
2019-05-25T01:45:07.667Z,1010.33
2019-05-25T01:46:06.675Z,1010.34
2019-05-25T01:47:06.622Z,1010.34
2019-05-25T01:48:06.590Z,1010.33
2019-05-25T01:49:06.557Z,1010.32
2019-05-25T01:50:06.530Z,1010.34
2019-05-25T01:51:06.524Z,1010.40
2019-05-25T01:52:06.475Z,1010.40
2019-05-25T01:53:06.446Z,1010.38
2019-05-25T01:54:06.420Z,1010.41
2019-05-25T01:55:06.386Z,1010.35
2019-05-25T01:56:06.378Z,1010.41
2019-05-25T01:57:06.327Z,1010.36
2019-05-25T01:58:06.300Z,1010.36
2019-05-25T01:59:06.273Z,1010.37
2019-05-25T02:00:06.238Z,1010.33
2019-05-25T02:01:06.240Z,1010.36
2019-05-25T02:02:06.180Z,1010.31
2019-05-25T02:03:06.152Z,1010.32
2019-05-25T02:04:06.126Z,1010.32
2019-05-25T02:05:06.094Z,1010.31
2019-05-25T02:06:06.084Z,1010.35
2019-05-25T02:07:06.030Z,1010.38
2019-05-25T02:08:06.006Z,1010.39
2019-05-25T02:09:05.991Z,1010.41
2019-05-25T02:10:05.945Z,1010.40
2019-05-25T02:11:05.944Z,1010.41
2019-05-25T02:12:05.887Z,1010.41
2019-05-25T02:13:05.858Z,1010.39
2019-05-25T02:14:05.831Z,1010.40
2019-05-25T02:15:05.796Z,1010.43
2019-05-25T02:16:05.798Z,1010.46
2019-05-25T02:17:05.740Z,1010.47
2019-05-25T02:18:05.711Z,1010.45
2019-05-25T02:19:05.679Z,1010.42
2019-05-25T02:20:05.657Z,1010.45
2019-05-25T02:21:05.625Z,1010.48
2019-05-25T02:22:05.615Z,1010.45
2019-05-25T02:23:05.567Z,1010.49
2019-05-25T02:24:05.536Z,1010.46
2019-05-25T02:25:16.948Z,1010.47
2019-05-25T02:26:05.479Z,1010.47
2019-05-25T02:27:05.467Z,1010.49
2019-05-25T02:28:05.423Z,1010.45
2019-05-25T02:29:05.386Z,1010.44
2019-05-25T02:30:05.375Z,1010.44
2019-05-25T02:31:05.339Z,1010.46
2019-05-25T02:32:05.326Z,1010.45
2019-05-25T02:33:05.268Z,1010.46
2019-05-25T02:34:05.251Z,1010.42
2019-05-25T02:35:05.210Z,1010.48
2019-05-25T02:36:05.180Z,1010.45
2019-05-25T02:37:05.177Z,1010.49
2019-05-25T02:38:05.126Z,1010.49
2019-05-25T02:39:05.139Z,1010.47
2019-05-25T02:40:05.061Z,1010.52
2019-05-25T02:41:05.035Z,1010.50
2019-05-25T02:42:05.026Z,1010.54
2019-05-25T02:43:04.972Z,1010.55
2019-05-25T02:44:04.952Z,1010.50
2019-05-25T02:45:04.918Z,1010.53
2019-05-25T02:46:04.888Z,1010.53
2019-05-25T02:47:04.881Z,1010.49
2019-05-25T02:48:04.877Z,1010.51
2019-05-25T02:49:05.677Z,1010.50
2019-05-25T02:50:04.771Z,1010.47
2019-05-25T02:51:04.737Z,1010.48
2019-05-25T02:52:04.728Z,1010.52
2019-05-25T02:53:04.678Z,1010.52
2019-05-25T02:54:04.657Z,1010.51
2019-05-25T02:55:04.622Z,1010.52
2019-05-25T02:56:04.599Z,1010.55
2019-05-25T02:57:04.581Z,1010.55
2019-05-25T02:58:04.536Z,1010.54
2019-05-25T02:59:05.100Z,1010.56
2019-05-25T03:00:04.472Z,1010.54
2019-05-25T03:01:04.440Z,1010.53
2019-05-25T03:02:04.434Z,1010.55
2019-05-25T03:03:04.384Z,1010.59
2019-05-25T03:04:04.348Z,1010.56
2019-05-25T03:05:04.340Z,1010.57
2019-05-25T03:06:04.346Z,1010.59
2019-05-25T03:07:04.288Z,1010.59
2019-05-25T03:08:04.238Z,1010.64
2019-05-25T03:09:04.212Z,1010.63
2019-05-25T03:10:04.174Z,1010.66
2019-05-25T03:11:04.145Z,1010.66
2019-05-25T03:12:04.141Z,1010.65
2019-05-25T03:13:04.146Z,1010.67
2019-05-25T03:14:04.058Z,1010.69
2019-05-25T03:15:04.172Z,1010.65
2019-05-25T03:16:03.996Z,1010.68
2019-05-25T03:17:03.997Z,1010.66
2019-05-25T03:18:03.932Z,1010.69
2019-05-25T03:19:03.904Z,1010.69
2019-05-25T03:20:03.882Z,1010.65
2019-05-25T03:21:03.845Z,1010.68
2019-05-25T03:22:03.842Z,1010.70
2019-05-25T03:23:03.783Z,1010.73
2019-05-25T03:24:03.761Z,1010.74
2019-05-25T03:25:03.721Z,1010.73
2019-05-25T03:26:03.693Z,1010.74
2019-05-25T03:27:03.687Z,1010.79
2019-05-25T03:28:03.637Z,1010.78
2019-05-25T03:29:03.603Z,1010.73
2019-05-25T03:30:03.579Z,1010.78
2019-05-25T03:31:03.548Z,1010.76
2019-05-25T03:32:03.543Z,1010.76
2019-05-25T03:33:03.497Z,1010.76
2019-05-25T03:34:03.459Z,1010.76
2019-05-25T03:35:03.433Z,1010.73
2019-05-25T03:36:03.400Z,1010.69
2019-05-25T03:37:03.397Z,1010.73
2019-05-25T03:38:03.383Z,1010.68
2019-05-25T03:39:03.304Z,1010.73
2019-05-25T03:40:03.276Z,1010.72
2019-05-25T03:41:03.241Z,1010.75
2019-05-25T03:42:03.217Z,1010.76
2019-05-25T03:43:03.206Z,1010.74
2019-05-25T03:44:03.155Z,1010.79
2019-05-25T03:45:03.132Z,1010.76
2019-05-25T03:46:03.100Z,1010.74
2019-05-25T03:47:03.070Z,1010.72
2019-05-25T03:48:03.099Z,1010.73
2019-05-25T03:49:03.019Z,1010.75
2019-05-25T03:50:02.977Z,1010.74
2019-05-25T03:51:02.945Z,1010.72
2019-05-25T03:52:02.916Z,1010.77
2019-05-25T03:53:02.923Z,1010.84
2019-05-25T03:54:02.861Z,1010.79
2019-05-25T03:55:02.830Z,1010.82
2019-05-25T03:56:05.842Z,1010.82
2019-05-25T03:57:02.771Z,1010.83
2019-05-25T03:58:02.763Z,1010.87
2019-05-25T03:59:02.708Z,1010.86
2019-05-25T04:00:02.679Z,1010.85
2019-05-25T04:01:02.651Z,1010.91
2019-05-25T04:02:02.616Z,1010.86
2019-05-25T04:03:03.188Z,1010.96
2019-05-25T04:04:02.559Z,1010.90
2019-05-25T04:05:02.550Z,1010.93
2019-05-25T04:06:02.498Z,1010.87
2019-05-25T04:07:03.193Z,1010.91
2019-05-25T04:08:02.460Z,1010.90
2019-05-25T04:09:02.411Z,1010.90
2019-05-25T04:10:02.421Z,1010.94
2019-05-25T04:11:02.353Z,1010.89
2019-05-25T04:12:02.327Z,1010.87
2019-05-25T04:13:02.319Z,1010.91
2019-05-25T04:14:02.269Z,1010.91
2019-05-25T04:15:02.237Z,1010.94
2019-05-25T04:16:02.206Z,1010.95
2019-05-25T04:17:02.178Z,1010.88
2019-05-25T04:18:02.183Z,1010.88
2019-05-25T04:19:02.122Z,1010.89
2019-05-25T04:20:02.095Z,1010.87
2019-05-25T04:21:02.064Z,1010.85
2019-05-25T04:22:02.035Z,1010.90
2019-05-25T04:23:02.038Z,1010.89
2019-05-25T04:24:02.024Z,1010.95
2019-05-25T04:25:01.958Z,1010.87
2019-05-25T04:26:01.939Z,1010.89
2019-05-25T04:27:01.892Z,1010.85
2019-05-25T04:28:01.890Z,1010.88
2019-05-25T04:29:01.843Z,1010.88
2019-05-25T04:30:01.805Z,1010.88
2019-05-25T04:31:01.773Z,1010.94
2019-05-25T04:32:01.744Z,1010.95
2019-05-25T04:33:01.744Z,1010.98
2019-05-25T04:34:01.698Z,1011.01
2019-05-25T04:35:01.663Z,1010.97
2019-05-25T04:36:02.196Z,1011.01
2019-05-25T04:37:01.603Z,1011.04
2019-05-25T04:38:01.602Z,1011.06
2019-05-25T04:39:01.543Z,1011.08
2019-05-25T04:40:01.545Z,1011.11
2019-05-25T04:41:01.491Z,1011.12
2019-05-25T04:42:01.462Z,1011.12
2019-05-25T04:43:01.544Z,1011.15
2019-05-25T04:44:01.403Z,1011.15
2019-05-25T04:45:01.387Z,1011.17
2019-05-25T04:46:01.373Z,1011.17
2019-05-25T04:47:01.320Z,1011.23
2019-05-25T04:48:01.381Z,1011.18
2019-05-25T04:49:01.253Z,1011.21
2019-05-25T04:50:01.237Z,1011.26
2019-05-25T04:51:01.230Z,1011.28
2019-05-25T04:52:01.172Z,1011.22
2019-05-25T04:53:01.140Z,1011.30
2019-05-25T04:54:01.145Z,1011.23
2019-05-25T04:55:01.093Z,1011.25
2019-05-25T04:56:01.058Z,1011.25
2019-05-25T04:57:01.032Z,1011.30
2019-05-25T04:58:00.999Z,1011.32
2019-05-25T04:59:01.232Z,1011.31
2019-05-25T05:00:00.938Z,1011.28
2019-05-25T05:01:00.916Z,1011.33
2019-05-25T05:02:00.882Z,1011.30
2019-05-25T05:03:00.851Z,1011.30
2019-05-25T05:04:00.848Z,1011.33
2019-05-25T05:05:00.854Z,1011.36
2019-05-25T05:06:00.779Z,1011.32
2019-05-25T05:07:00.737Z,1011.34
2019-05-25T05:08:00.709Z,1011.33
2019-05-25T05:09:00.716Z,1011.32
2019-05-25T05:10:02.953Z,1011.33
2019-05-25T05:11:00.625Z,1011.34
2019-05-25T05:12:00.596Z,1011.34
2019-05-25T05:13:00.568Z,1011.40
2019-05-25T05:14:00.561Z,1011.43
2019-05-25T05:15:00.511Z,1011.37
2019-05-25T05:16:00.500Z,1011.38
2019-05-25T05:17:00.446Z,1011.38
2019-05-25T05:18:00.419Z,1011.38
2019-05-25T05:19:00.408Z,1011.42
2019-05-25T05:20:00.358Z,1011.41
2019-05-25T05:21:00.330Z,1011.38
2019-05-25T05:22:00.305Z,1011.43
2019-05-25T05:23:01.137Z,1011.38
2019-05-25T05:24:00.271Z,1011.40
2019-05-25T05:25:07.708Z,1011.36
2019-05-25T05:26:00.242Z,1011.38
2019-05-25T05:27:00.424Z,1011.36
2019-05-25T05:28:00.173Z,1011.38
2019-05-25T05:29:00.167Z,1011.35
2019-05-25T05:30:00.129Z,1011.40
2019-05-25T05:31:00.091Z,1011.37
2019-05-25T05:32:00.035Z,1011.36
2019-05-25T05:33:00.005Z,1011.44
2019-05-25T05:34:00.291Z,1011.40
2019-05-25T05:35:01.665Z,1011.45
2019-05-25T05:36:00.703Z,1011.45
2019-05-25T05:36:59.929Z,1011.43
2019-05-25T05:38:00.750Z,1011.49
2019-05-25T05:38:59.884Z,1011.50
2019-05-25T05:39:59.811Z,1011.45
2019-05-25T05:41:00.745Z,1011.57
2019-05-25T05:42:00.245Z,1011.45
2019-05-25T05:42:59.774Z,1011.47
2019-05-25T05:44:03.167Z,1011.50
2019-05-25T05:44:59.700Z,1011.43
2019-05-25T05:46:00.167Z,1011.50
2019-05-25T05:46:59.670Z,1011.46
2019-05-25T05:47:59.559Z,1011.61
2019-05-25T05:48:59.550Z,1011.55
2019-05-25T05:49:59.514Z,1011.66
2019-05-25T05:50:59.468Z,1011.61
2019-05-25T05:51:59.461Z,1011.55
2019-05-25T05:52:59.515Z,1011.61
2019-05-25T05:53:59.405Z,1011.66
2019-05-25T05:54:59.353Z,1011.55
2019-05-25T05:55:59.324Z,1011.58
2019-05-25T05:57:11.646Z,1011.70
2019-05-25T05:57:59.271Z,1011.65
2019-05-25T05:58:59.266Z,1011.66
2019-05-25T05:59:59.212Z,1011.68
2019-05-25T06:00:59.237Z,1011.62
2019-05-25T06:01:59.165Z,1011.58
2019-05-25T06:03:01.753Z,1011.63
2019-05-25T06:03:59.135Z,1011.60
2019-05-25T06:04:59.077Z,1011.61
2019-05-25T06:05:59.049Z,1011.59
2019-05-25T06:06:59.017Z,1011.59
2019-05-25T06:07:58.997Z,1011.64
2019-05-25T06:08:58.963Z,1011.65
2019-05-25T06:09:58.962Z,1011.62
2019-05-25T06:10:58.908Z,1011.62
2019-05-25T06:11:58.883Z,1011.61
2019-05-25T06:13:01.758Z,1011.67
2019-05-25T06:13:58.837Z,1011.74
2019-05-25T06:14:58.828Z,1011.68
2019-05-25T06:15:58.787Z,1011.72
2019-05-25T06:16:58.758Z,1011.67
2019-05-25T06:17:58.725Z,1011.69
2019-05-25T06:18:58.694Z,1011.73
2019-05-25T06:19:58.797Z,1011.82
2019-05-25T06:20:58.642Z,1011.83
2019-05-25T06:21:58.627Z,1011.83
2019-05-25T06:22:58.656Z,1011.84
2019-05-25T06:23:58.567Z,1011.87
2019-05-25T06:24:58.562Z,1011.89
2019-05-25T06:25:58.514Z,1011.89
2019-05-25T06:26:58.494Z,1011.85
2019-05-25T06:27:58.473Z,1011.94
2019-05-25T06:28:58.446Z,1011.96
2019-05-25T06:29:58.449Z,1011.93
2019-05-25T06:30:58.393Z,1011.93
2019-05-25T06:31:58.374Z,1011.99
2019-05-25T06:32:58.359Z,1011.94
2019-05-25T06:33:58.310Z,1011.91
2019-05-25T06:34:58.319Z,1011.92
2019-05-25T06:35:58.264Z,1011.99
2019-05-25T06:36:58.232Z,1012.03
2019-05-25T06:37:58.207Z,1012.01
2019-05-25T06:38:58.178Z,1011.98
2019-05-25T06:39:58.200Z,1011.99
2019-05-25T06:40:58.144Z,1011.96
2019-05-25T06:41:58.109Z,1012.03
2019-05-25T06:42:58.085Z,1012.03
2019-05-25T06:43:58.051Z,1012.01
2019-05-25T06:44:58.049Z,1011.97
2019-05-25T06:45:58.009Z,1011.95
2019-05-25T06:46:57.980Z,1011.96
2019-05-25T06:47:57.960Z,1012.05
2019-05-25T06:48:57.934Z,1012.08
2019-05-25T06:49:57.925Z,1012.04
2019-05-25T06:50:57.880Z,1012.06
2019-05-25T06:51:57.856Z,1012.01
2019-05-25T06:52:58.220Z,1012.04
2019-05-25T06:53:57.805Z,1012.07
2019-05-25T06:54:57.847Z,1012.06
2019-05-25T06:55:57.751Z,1012.08
2019-05-25T06:56:57.723Z,1012.11
2019-05-25T06:57:57.699Z,1012.14
2019-05-25T06:58:57.674Z,1012.12
2019-05-25T06:59:57.677Z,1012.17
2019-05-25T07:00:57.618Z,1012.20
2019-05-25T07:01:57.593Z,1012.18
2019-05-25T07:02:57.566Z,1012.20
2019-05-25T07:03:57.546Z,1012.24
2019-05-25T07:04:57.556Z,1012.25
2019-05-25T07:05:57.503Z,1012.27
2019-05-25T07:06:57.484Z,1012.33
2019-05-25T07:07:57.466Z,1012.26
2019-05-25T07:08:57.423Z,1012.30
2019-05-25T07:09:57.427Z,1012.24
2019-05-25T07:10:57.373Z,1012.26
2019-05-25T07:11:57.347Z,1012.25
2019-05-25T07:12:57.324Z,1012.18
2019-05-25T07:13:57.302Z,1012.17
2019-05-25T07:14:57.300Z,1012.20
2019-05-25T07:15:57.251Z,1012.22
2019-05-25T07:16:57.220Z,1012.21
2019-05-25T07:17:57.192Z,1012.26
2019-05-25T07:18:57.168Z,1012.25
2019-05-25T07:19:57.146Z,1012.26
2019-05-25T07:20:57.140Z,1012.24
2019-05-25T07:21:57.105Z,1012.27
2019-05-25T07:23:00.189Z,1012.27
2019-05-25T07:23:57.051Z,1012.28
2019-05-25T07:24:57.019Z,1012.25
2019-05-25T07:25:57.017Z,1012.33
2019-05-25T07:26:56.970Z,1012.28
2019-05-25T07:28:00.031Z,1012.25
2019-05-25T07:28:56.917Z,1012.28
2019-05-25T07:29:56.897Z,1012.30
2019-05-25T07:30:56.896Z,1012.30
2019-05-25T07:31:56.844Z,1012.32
2019-05-25T07:32:56.868Z,1012.31
2019-05-25T07:33:56.796Z,1012.31
2019-05-25T07:34:56.782Z,1012.28
2019-05-25T07:35:56.764Z,1012.31
2019-05-25T07:36:56.716Z,1012.31
2019-05-25T07:37:56.698Z,1012.28
2019-05-25T07:38:56.677Z,1012.26
2019-05-25T07:39:56.640Z,1012.25
2019-05-25T07:40:56.647Z,1012.25
2019-05-25T07:41:56.595Z,1012.35
2019-05-25T07:42:56.572Z,1012.30
2019-05-25T07:43:56.542Z,1012.33
2019-05-25T07:44:56.521Z,1012.34
2019-05-25T07:45:56.520Z,1012.29
2019-05-25T07:46:56.475Z,1012.30
2019-05-25T07:47:56.454Z,1012.36
2019-05-25T07:48:56.429Z,1012.31
2019-05-25T07:49:56.411Z,1012.32
2019-05-25T07:50:56.397Z,1012.38
2019-05-25T07:51:56.352Z,1012.33
2019-05-25T07:52:56.330Z,1012.31
2019-05-25T07:53:56.300Z,1012.35
2019-05-25T07:54:56.283Z,1012.37
2019-05-25T07:55:56.278Z,1012.36
2019-05-25T07:56:56.237Z,1012.35
2019-05-25T07:57:56.207Z,1012.36
2019-05-25T07:58:56.184Z,1012.41
2019-05-25T07:59:56.167Z,1012.40
2019-05-25T08:00:56.160Z,1012.39
2019-05-25T08:01:56.112Z,1012.40
2019-05-25T08:02:56.088Z,1012.44
2019-05-25T08:03:56.065Z,1012.44
2019-05-25T08:04:56.044Z,1012.46
2019-05-25T08:05:56.042Z,1012.43
2019-05-25T08:06:56.010Z,1012.43
2019-05-25T08:07:55.972Z,1012.48
2019-05-25T08:08:55.945Z,1012.55
2019-05-25T08:09:56.029Z,1012.47
2019-05-25T08:10:55.926Z,1012.52
2019-05-25T08:11:55.877Z,1012.48
2019-05-25T08:12:55.853Z,1012.48
2019-05-25T08:13:55.831Z,1012.48
2019-05-25T08:14:55.802Z,1012.52
2019-05-25T08:15:55.801Z,1012.57
2019-05-25T08:16:55.757Z,1012.51
2019-05-25T08:17:55.738Z,1012.53
2019-05-25T08:18:55.712Z,1012.50
2019-05-25T08:19:55.798Z,1012.49
2019-05-25T08:20:55.680Z,1012.53
2019-05-25T08:21:55.633Z,1012.54
2019-05-25T08:22:55.612Z,1012.55
2019-05-25T08:23:55.585Z,1012.55
2019-05-25T08:24:55.565Z,1012.56
2019-05-25T08:25:55.560Z,1012.56
2019-05-25T08:26:55.521Z,1012.59
2019-05-25T08:27:55.496Z,1012.62
2019-05-25T08:28:55.468Z,1012.59
2019-05-25T08:29:56.245Z,1012.64
2019-05-25T08:30:55.454Z,1012.64
2019-05-25T08:31:55.395Z,1012.62
2019-05-25T08:32:55.377Z,1012.68
2019-05-25T08:33:55.342Z,1012.62
2019-05-25T08:34:55.324Z,1012.70
2019-05-25T08:35:55.291Z,1012.69
2019-05-25T08:36:55.307Z,1012.63
2019-05-25T08:37:55.248Z,1012.61
2019-05-25T08:38:55.220Z,1012.61
2019-05-25T08:39:55.319Z,1012.62
2019-05-25T08:40:55.177Z,1012.56
2019-05-25T08:41:55.171Z,1012.57
2019-05-25T08:42:55.123Z,1012.62
2019-05-25T08:43:55.096Z,1012.56
2019-05-25T08:44:55.715Z,1012.60
2019-05-25T08:45:55.060Z,1012.60
2019-05-25T08:46:55.600Z,1012.62
2019-05-25T08:47:57.222Z,1012.62
2019-05-25T08:48:54.971Z,1012.69
2019-05-25T08:49:54.969Z,1012.64
2019-05-25T08:50:54.923Z,1012.61
2019-05-25T08:51:55.153Z,1012.59
2019-05-25T08:52:54.871Z,1012.65
2019-05-25T08:53:54.848Z,1012.64
2019-05-25T08:54:56.681Z,1012.66
2019-05-25T08:55:54.807Z,1012.63
2019-05-25T08:56:54.824Z,1012.67
2019-05-25T08:57:54.773Z,1012.65
2019-05-25T08:58:55.556Z,1012.67
2019-05-25T08:59:54.706Z,1012.68
2019-05-25T09:00:54.680Z,1012.69
2019-05-25T09:01:54.678Z,1012.67
2019-05-25T09:02:54.631Z,1012.66
2019-05-25T09:03:54.599Z,1012.68
2019-05-25T09:04:54.573Z,1012.71
2019-05-25T09:05:54.552Z,1012.74
2019-05-25T09:06:54.553Z,1012.75
2019-05-25T09:07:54.497Z,1012.72
2019-05-25T09:08:54.474Z,1012.70
2019-05-25T09:09:54.468Z,1012.71
2019-05-25T09:10:54.427Z,1012.73
2019-05-25T09:11:54.427Z,1012.70
2019-05-25T09:12:54.378Z,1012.72
2019-05-25T09:13:54.354Z,1012.75
2019-05-25T09:14:54.327Z,1012.71
2019-05-25T09:15:54.306Z,1012.74
2019-05-25T09:16:54.302Z,1012.71
2019-05-25T09:17:54.602Z,1012.79
2019-05-25T09:18:54.233Z,1012.73
2019-05-25T09:19:54.203Z,1012.77
2019-05-25T09:20:54.207Z,1012.77
2019-05-25T09:22:02.687Z,1012.74
2019-05-25T09:22:54.144Z,1012.82
2019-05-25T09:23:54.109Z,1012.82
2019-05-25T09:24:54.082Z,1012.81
2019-05-25T09:25:54.056Z,1012.83
2019-05-25T09:26:54.061Z,1012.82
2019-05-25T09:27:54.004Z,1012.83
2019-05-25T09:29:03.891Z,1012.80
2019-05-25T09:29:53.956Z,1012.82
2019-05-25T09:30:53.957Z,1012.83
2019-05-25T09:31:53.925Z,1012.87
2019-05-25T09:32:53.883Z,1012.82
2019-05-25T09:33:53.873Z,1012.87
2019-05-25T09:34:53.854Z,1012.87
2019-05-25T09:35:53.813Z,1012.89
2019-05-25T09:36:53.819Z,1012.90
2019-05-25T09:37:53.770Z,1012.89
2019-05-25T09:38:53.741Z,1012.90
2019-05-25T09:39:53.712Z,1012.93
2019-05-25T09:40:53.687Z,1012.91
2019-05-25T09:41:53.689Z,1012.90
2019-05-25T09:42:53.673Z,1012.93
2019-05-25T09:43:53.624Z,1012.91
2019-05-25T09:44:53.602Z,1012.85
2019-05-25T09:45:53.574Z,1012.89
2019-05-25T09:46:53.567Z,1012.86
2019-05-25T09:47:53.523Z,1012.88
2019-05-25T09:48:53.498Z,1012.92
2019-05-25T09:49:53.497Z,1012.97
2019-05-25T09:50:53.476Z,1012.93
2019-05-25T09:51:53.736Z,1012.95
2019-05-25T09:52:53.418Z,1012.93
2019-05-25T09:53:53.383Z,1012.99
2019-05-25T09:54:55.672Z,1012.97
2019-05-25T09:55:53.333Z,1012.96
2019-05-25T09:56:53.314Z,1012.92
2019-05-25T09:57:53.325Z,1012.95
2019-05-25T09:58:53.282Z,1012.93
2019-05-25T09:59:53.267Z,1012.96
2019-05-25T10:00:53.232Z,1012.95
2019-05-25T10:01:53.211Z,1012.98
2019-05-25T10:02:53.212Z,1013.03
2019-05-25T10:03:56.909Z,1013.00
2019-05-25T10:04:53.140Z,1012.96
2019-05-25T10:05:53.116Z,1012.91
2019-05-25T10:06:53.094Z,1012.88
2019-05-25T10:07:53.101Z,1012.90
2019-05-25T10:08:53.055Z,1012.94
2019-05-25T10:09:53.027Z,1012.91
2019-05-25T10:10:53.029Z,1012.89
2019-05-25T10:11:52.987Z,1012.84
2019-05-25T10:12:52.988Z,1012.85
2019-05-25T10:13:52.946Z,1012.81
2019-05-25T10:14:52.924Z,1012.84
2019-05-25T10:15:52.901Z,1012.84
2019-05-25T10:16:52.888Z,1012.87
2019-05-25T10:17:53.370Z,1012.88
2019-05-25T10:18:52.854Z,1012.92
2019-05-25T10:19:52.817Z,1012.91
2019-05-25T10:20:52.797Z,1012.93
2019-05-25T10:21:52.774Z,1012.92
2019-05-25T10:22:52.780Z,1012.88
2019-05-25T10:23:52.725Z,1012.92
2019-05-25T10:24:52.716Z,1012.93
2019-05-25T10:25:52.689Z,1012.84
2019-05-25T10:26:52.665Z,1012.84
2019-05-25T10:27:52.670Z,1012.86
2019-05-25T10:28:52.618Z,1012.85
2019-05-25T10:29:52.598Z,1012.80
2019-05-25T10:30:52.575Z,1012.81
2019-05-25T10:31:52.554Z,1012.82
2019-05-25T10:32:52.570Z,1012.81
2019-05-25T10:33:52.508Z,1012.79
2019-05-25T10:34:52.488Z,1012.77
2019-05-25T10:35:52.474Z,1012.77
2019-05-25T10:36:52.458Z,1012.76
2019-05-25T10:37:52.456Z,1012.74
2019-05-25T10:38:52.402Z,1012.90
2019-05-25T10:39:52.378Z,1012.84
2019-05-25T10:40:52.359Z,1012.81
2019-05-25T10:41:52.330Z,1012.84
2019-05-25T10:42:52.338Z,1012.84
2019-05-25T10:43:52.292Z,1012.87
2019-05-25T10:44:52.269Z,1012.86
2019-05-25T10:45:52.245Z,1012.80
2019-05-25T10:46:52.241Z,1012.83
2019-05-25T10:47:52.216Z,1012.82
2019-05-25T10:48:52.170Z,1012.79
2019-05-25T10:49:52.154Z,1012.88
2019-05-25T10:50:52.155Z,1012.84
2019-05-25T10:51:52.109Z,1012.82
2019-05-25T10:52:52.104Z,1012.82
2019-05-25T10:53:52.063Z,1012.84
2019-05-25T10:54:52.038Z,1012.94
2019-05-25T10:55:52.015Z,1012.88
2019-05-25T10:56:52.146Z,1012.83
2019-05-25T10:57:52.001Z,1012.85
2019-05-25T10:58:51.954Z,1012.87
2019-05-25T10:59:53.466Z,1012.90
2019-05-25T11:00:51.904Z,1012.86
2019-05-25T11:01:51.882Z,1012.84
2019-05-25T11:02:51.885Z,1012.79
2019-05-25T11:03:51.836Z,1012.81
2019-05-25T11:04:51.819Z,1012.84
2019-05-25T11:05:51.790Z,1012.83
2019-05-25T11:06:51.789Z,1012.84
2019-05-25T11:07:51.750Z,1012.86
2019-05-25T11:08:51.756Z,1012.85
2019-05-25T11:09:51.707Z,1012.85
2019-05-25T11:10:51.684Z,1012.86
2019-05-25T11:11:51.655Z,1012.84
2019-05-25T11:12:51.646Z,1012.85
2019-05-25T11:13:51.635Z,1012.91
2019-05-25T11:14:51.593Z,1012.88
2019-05-25T11:15:51.571Z,1012.81
2019-05-25T11:16:51.715Z,1012.79
2019-05-25T11:17:51.536Z,1012.80
2019-05-25T11:18:51.525Z,1012.82
2019-05-25T11:19:51.473Z,1012.82
2019-05-25T11:20:51.451Z,1012.83
2019-05-25T11:21:51.427Z,1012.80
2019-05-25T11:22:51.407Z,1012.81
2019-05-25T11:23:51.401Z,1012.83
2019-05-25T11:24:51.361Z,1012.82
2019-05-25T11:25:51.333Z,1012.81
2019-05-25T11:26:51.312Z,1012.90
2019-05-25T11:27:51.293Z,1012.85
2019-05-25T11:28:51.291Z,1012.86
2019-05-25T11:29:51.248Z,1012.89
2019-05-25T11:30:51.227Z,1012.89
2019-05-25T11:31:57.607Z,1012.89
2019-05-25T11:32:51.179Z,1012.87
2019-05-25T11:33:51.182Z,1012.87
2019-05-25T11:34:51.141Z,1012.85
2019-05-25T11:35:51.118Z,1012.89
2019-05-25T11:36:51.091Z,1012.86
2019-05-25T11:37:51.075Z,1012.85
2019-05-25T11:38:51.072Z,1012.84
2019-05-25T11:39:51.035Z,1012.89
2019-05-25T11:40:51.007Z,1012.88
2019-05-25T11:41:50.984Z,1012.84
2019-05-25T11:42:50.980Z,1012.84
2019-05-25T11:43:50.978Z,1012.87
2019-05-25T11:44:50.930Z,1012.88
2019-05-25T11:45:50.911Z,1012.85
2019-05-25T11:46:51.763Z,1012.86
2019-05-25T11:47:50.860Z,1012.88
2019-05-25T11:48:50.916Z,1012.93
2019-05-25T11:49:50.822Z,1012.88
2019-05-25T11:50:50.802Z,1012.88
2019-05-25T11:51:50.809Z,1012.86
2019-05-25T11:52:50.790Z,1012.86
2019-05-25T11:53:50.758Z,1012.86
2019-05-25T11:54:50.718Z,1012.83
2019-05-25T11:55:50.696Z,1012.89
2019-05-25T11:56:50.672Z,1012.82
2019-05-25T11:57:50.680Z,1012.82
2019-05-25T11:58:50.654Z,1012.77
2019-05-25T11:59:50.620Z,1012.79
2019-05-25T12:00:51.756Z,1012.81
2019-05-25T12:01:50.571Z,1012.86
2019-05-25T12:02:50.555Z,1012.84
2019-05-25T12:03:50.559Z,1012.81
2019-05-25T12:04:50.514Z,1012.81